Flight Track Log - Related Links

Times and Time Zones

All times are in EDT time to prevent confusion due to time zone crossing. See the AVN11 flight status page for this flight to view local times or setup timezone preferences in your user account.

Time Position Orientation Groundspeed Altitude Reporting Facility
EDT Latitude Longitude Course Direction KTS MPH feet Rate Location/Type
Thu 21:06:02 -33.9445 151.1871 349° North 166 191 500  Level FlightAware ADS-B (WPDL / DIL)
Thu 21:06:11 -33.9397 151.1865 North 167 192 1,000 3,000 Climbing FlightAware ADS-B (WPDL / DIL)
Thu 21:06:18 -33.9333 151.1887 34° Northeast 172 198 1,300 2,250 Climbing FlightAware ADS-B (YRAY)
Thu 21:06:27 -33.9269 151.1961 57° Northeast 181 208 1,600 1,667 Climbing FlightAware ADS-B (WPDL / DIL)
Thu 21:06:36 -33.9249 151.2040 80° East 186 214 1,800 1,579 Climbing FlightAware ADS-B (YCVB)
Thu 21:06:46 -33.9262 151.2141 106° East 189 217 2,100 2,143 Climbing FlightAware ADS-B (YCVB)
Thu 21:06:50 -33.9278 151.2187 115° Southeast 189 217 2,300 3,000 Climbing FlightAware ADS-B (WPDL / DIL)
Thu 21:06:56 -33.9300 151.2239 116° Southeast 189 217 2,600 1,875 Climbing FlightAware ADS-B (WPDL / DIL)
Thu 21:07:06 -33.9343 151.2345 114° Southeast 207 238 2,800 900 Climbing FlightAware ADS-B (WPDL / DIL)
Thu 21:07:16 -33.9371 151.2445 104° East 216 249 2,900 800 Climbing FlightAware ADS-B (YCVB)
Thu 21:07:21 -33.9379 151.2505 98° East 222 255 3,000 1,000 Climbing FlightAware ADS-B (YRAY)
Thu 21:07:28 -33.9382 151.2594 99° East 221 254 3,100 1,125 Climbing FlightAware ADS-B (YSRI)
Thu 21:07:37 -33.9380 151.2724 88° East 249 287 3,300 1,400 Climbing FlightAware ADS-B (YSRI)
Thu 21:07:58 -33.9371 151.3020 89° East 274 315 3,800 1,333 Climbing FlightAware ADS-B (YCVB)
Thu 21:08:04 -33.9367 151.3118 89° East 287 330 3,900 1,059 Climbing FlightAware ADS-B (YCVB)
Thu 21:08:15 -33.9368 151.3095 88° East 304 350 4,100 1,200 Climbing FlightAware ADS-B (YSRI)
Thu 21:08:24 -33.9355 151.3452 88° East 322 371 4,300 783 Climbing FlightAware ADS-B (YSRI)
Thu 21:08:38 -33.9323 151.3708 80° East 334 384 4,400 706 Climbing FlightAware ADS-B (YSRI)
Thu 21:08:41 -33.9313 151.3744 70° East 340 391 4,500 1,091 Climbing FlightAware ADS-B
Thu 21:08:49 -33.9249 151.3898 61° Northeast 344 396 4,600 462 Climbing FlightAware ADS-B (YSRI)
Thu 21:08:54 -33.9203 151.3979 54° Northeast 346 398 4,600 600 Level FlightAware ADS-B (YSRI)
Thu 21:09:09 -33.9129 151.4088 50° Northeast 348 400 4,800 429 Climbing FlightAware ADS-B (YSRI)
Thu 21:09:22 -33.8968 151.4324 52° Northeast 348 400 4,800 375 Level FlightAware ADS-B (YSRI)
Thu 21:09:41 -33.9063 151.4183 51° Northeast 348 400 5,000 1,538 Climbing FlightAware ADS-B (WPDL / DIL)
Thu 21:10:01 -33.8543 151.4976 53° Northeast 343 395 5,800 2,769 Climbing FlightAware ADS-B (WPDL / DIL)
Thu 21:10:20 -33.8351 151.5276 52° Northeast 344 396 6,800 2,769 Climbing FlightAware ADS-B (WPDL / DIL)
Thu 21:10:40 -33.8172 151.5551 52° Northeast 353 406 7,600 2,400 Climbing FlightAware ADS-B (YSRI)
Thu 21:10:45 -33.8103 151.5657 53° Northeast 346 398 7,800 2,538 Climbing FlightAware ADS-B (YCVB)
Thu 21:11:06 -33.7891 151.5979 52° Northeast 362 417 8,700 2,667 Climbing FlightAware ADS-B (YRAY)
Thu 21:11:21 -33.7729 151.6223 52° Northeast 365 420 9,400 3,067 Climbing FlightAware ADS-B (YCVB)
Thu 21:11:51 -33.7465 151.6624 52° Northeast 367 422 11,000 3,100 Climbing FlightAware ADS-B (YSRI)
Thu 21:12:21 -33.7139 151.7126 52° Northeast 366 421 12,500 2,613 Climbing FlightAware ADS-B (YSRI)
Thu 21:12:53 -33.6766 151.7695 52° Northeast 376 433 13,700 2,476 Climbing FlightAware ADS-B
Thu 21:13:24 -33.6430 151.8208 52° Northeast 384 442 15,100 2,613 Climbing FlightAware ADS-B (YSRI)
Thu 21:13:55 -33.6103 151.8707 52° Northeast 387 445 16,400 2,361 Climbing FlightAware ADS-B (YSRI)
Thu 21:14:25 -33.5745 151.9256 52° Northeast 391 450 17,500 2,123 Climbing FlightAware ADS-B (YSRI)
Thu 21:15:00 -33.5370 151.9827 52° Northeast 401 461 18,700 2,087 Climbing FlightAware ADS-B
Thu 21:15:34 -33.4973 152.0429 52° Northeast 405 466 19,900 2,123 Climbing FlightAware ADS-B (YSRI)
Thu 21:16:05 -33.4585 152.1017 52° Northeast 412 474 21,000 2,318 Climbing FlightAware ADS-B (WPDL / DIL)
Thu 21:16:18 -33.4281 152.1480 51° Northeast 415 478 21,600 1,773 Climbing FlightAware ADS-B (YPLB)
Thu 21:16:49 -33.4255 152.1518 52° Northeast 418 481 22,300 2,032 Climbing FlightAware ADS-B (WPDL / DIL)
Thu 21:17:20 -33.3527 152.2619 51° Northeast 420 483 23,700 2,550 Climbing FlightAware ADS-B (YPLB)
Thu 21:17:29 -33.3422 152.2778 51° Northeast 420 483 24,000 1,579 Climbing FlightAware ADS-B (YPLB)
Thu 21:17:39 -33.3305 152.2955 51° Northeast 421 484 24,200 1,548 Climbing FlightAware ADS-B (YPLB)
Thu 21:18:00 -33.3044 152.3347 51° Northeast 425 489 24,800 1,161 Climbing FlightAware ADS-B (YPLB)
Thu 21:18:41 -33.3172 152.3156 52° Northeast 425 489 25,400 1,275 Climbing FlightAware ADS-B (YSRI)
Thu 21:19:20 -33.2052 152.4837 51° Northeast 441 507 26,500 1,186 Climbing FlightAware ADS-B (YPLB)
Thu 21:20:07 -33.1631 152.5468 52° Northeast 448 516 27,100 987 Climbing FlightAware ADS-B
Thu 21:20:39 -33.1025 152.6374 51° Northeast 459 528 27,800 1,273 Climbing FlightAware ADS-B (YPLB)
Thu 21:20:40 -33.1206 152.6107 52° Northeast 442 509 27,800 714 Level Aus ATC (RADAR)
Thu 21:21:21 -33.0456 152.7222 51° Northeast 473 544 28,300 593 Climbing FlightAware ADS-B (YPLB)
Thu 21:22:11 -32.9970 152.7946 51° Northeast 482 555 28,700 750 Climbing FlightAware ADS-B
Thu 21:22:41 -32.9539 152.8599 51° Northeast 487 560 29,300 1,692 Climbing Aus ATC (RADAR)
Thu 21:22:50 -32.9204 152.9088 51° Northeast 485 558 29,800 2,400 Climbing FlightAware ADS-B (YPLB)
Thu 21:23:01 -32.9056 152.9311 51° Northeast 483 556 30,100 1,592 Climbing FlightAware ADS-B (YPLB)
Thu 21:23:39 -32.8534 153.0088 51° Northeast 478 550 31,100 1,167 Climbing FlightAware ADS-B (YPLB)
Thu 21:24:13 -32.8260 153.0494 51° Northeast 478 550 31,500 930 Climbing FlightAware ADS-B
Thu 21:24:50 -32.7550 153.1538 51° Northeast 485 558 32,200 963 Climbing FlightAware ADS-B (YPLB)
Thu 21:25:34 -32.7126 153.2165 51° Northeast 474 545 32,800 787 Climbing Aus ATC (RADAR)
Thu 21:25:51 -32.6885 153.2529 52° Northeast 489 563 33,000 706 Climbing Aus ATC (RADAR)
Thu 21:25:51 -32.6697 153.2792 51° Northeast 490 564 33,000 857 Level FlightAware ADS-B (YPLB)
Thu 21:26:40 -32.5995 153.3820 51° Northeast 492 566 33,700 767 Climbing FlightAware ADS-B (YPLB)
Thu 21:27:17 -32.5656 153.4316 51° Northeast 494 568 34,100 771 Climbing FlightAware ADS-B
Thu 21:27:50 -32.5020 153.5246 51° Northeast 497 572 34,600 750 Climbing FlightAware ADS-B (YPLB)
Thu 21:28:21 -32.4733 153.5665 51° Northeast 498 573 34,900 387 Climbing FlightAware ADS-B
Thu 21:28:52 -32.4073 153.6622 50° Northeast 502 578 35,000 706 Climbing FlightAware ADS-B (YPLB)
Thu 21:28:55 -32.4222 153.6418 51° Northeast 501 577 35,300  Climbing Aus ATC (RADAR)
Thu 21:29:22 -32.3840 153.6962 51° Northeast 503 579 35,000 -316 Descending FlightAware ADS-B
Thu 21:29:52 -32.3196 153.7901 51° Northeast 504 580 35,000  Level FlightAware ADS-B (YPLB)
Thu 21:30:31 -32.2608 153.8753 50° Northeast 506 582 35,000 146 Level FlightAware ADS-B (YPLB)
Thu 21:31:14 -32.2194 153.9359 50° Northeast 490 564 35,200  Climbing Aus ATC (RADAR)
Thu 21:31:21 -32.1873 153.9816 50° Northeast 507 583 35,000 -267 Descending FlightAware ADS-B (YPLB)
Thu 21:31:59 -32.1305 154.0633 50° Northeast 510 587 35,000  Level FlightAware ADS-B (YPLB)
Thu 21:32:32 -32.0807 154.1347 50° Northeast 512 589 35,000 333 Level FlightAware ADS-B (YPLB)
Thu 21:32:35 -32.0969 154.1124 50° Northeast 509 586 35,200  Climbing Aus ATC (RADAR)
Thu 21:33:11 -32.0266 154.2122 50° Northeast 514 592 35,000 -164 Descending FlightAware ADS-B (YPLB)
Thu 21:33:48 -31.9650 154.3007 50° Northeast 514 592 35,000  Level FlightAware ADS-B (YPLB)
Thu 21:34:20 -31.9163 154.3700 50° Northeast 514 592 35,000 194 Level FlightAware ADS-B (YPLB)
Thu 21:34:50 -31.8933 154.4032 50° Northeast 513 590 35,200  Climbing Aus ATC (RADAR)
Thu 21:35:02 -31.8543 154.4583 50° Northeast 515 593 35,000 -245 Descending FlightAware ADS-B (YPLB)
Thu 21:35:39 -31.7962 154.5410 50° Northeast 515 593 35,000 136 Level FlightAware ADS-B (YPLB)
Thu 21:36:30 -31.7418 154.6187 50° Northeast 514 592 35,200 103 Climbing Aus ATC (RADAR)
Thu 21:37:35 -31.6429 154.7582 50° Northeast 513 590 35,200  Level Aus ATC (RADAR)
Thu 21:38:00 -31.6051 154.8116 50° Northeast 513 590 35,200  Level Aus ATC (RADAR)
Thu 21:38:34 -31.5518 154.8864 50° Northeast 512 589 35,200 -171 Level Aus ATC (RADAR)
Thu 21:39:10 -31.4771 154.9912 50° Northeast 516 594 35,000  Descending FlightAware ADS-B (YPLB)
Thu 21:39:20 -31.4830 154.9829 50° Northeast 515 593 35,200  Climbing Aus ATC (RADAR)
Thu 21:39:40 -31.4298 155.0579 50° Northeast 517 595 35,000 -240 Descending FlightAware ADS-B (YPLB)
Thu 21:40:10 -31.3890 155.1152 50° Northeast 517 595 35,000  Level FlightAware ADS-B (YPLB)
Thu 21:40:41 -31.3374 155.1873 50° Northeast 517 595 35,000 308 Level FlightAware ADS-B (YPLB)
Thu 21:40:49 -31.3453 155.1761 50° Northeast 517 595 35,200 279 Climbing Aus ATC (RADAR)
Thu 21:41:24 -31.2923 155.2504 50° Northeast 514 592 35,200  Level Aus ATC (RADAR)
Thu 21:42:38 -31.1775 155.4071 49° Northeast 498 573 35,200  Level Aus ATC (RADAR)
Thu 21:43:14 -31.1230 155.4861 51° Northeast 518 596 35,200  Level Aus ATC (RADAR)
Thu 21:43:34 -31.0921 155.5290 50° Northeast 518 596 35,200  Level Aus ATC (RADAR)
Thu 21:44:08 -31.0371 155.5999 48° Northeast 502 578 35,200  Level Aus ATC (RADAR)
Thu 21:44:54 -30.9679 155.7005 51° Northeast 519 597 35,200  Level Aus ATC (RADAR)
Thu 21:45:29 -30.9132 155.7759 50° Northeast 521 600 35,200  Level Aus ATC (RADAR)
Thu 21:46:34 -30.8118 155.9151 50° Northeast 520 598 35,200  Level Aus ATC (RADAR)
Thu 21:48:14 -30.6526 156.1246 49° Northeast 518 596 35,200  Level Aus ATC (RADAR)
Thu 21:48:29 -30.6289 156.1560 49° Northeast 518 596 35,200  Level Aus ATC (RADAR)
Thu 21:49:03 -30.5734 156.2294 49° Northeast 518 596 35,200  Level Aus ATC (RADAR)
Thu 21:49:59 -30.4862 156.3443 49° Northeast 517 595 35,200  Level Aus ATC (RADAR)
Thu 21:50:14 -30.4624 156.3757 49° Northeast 517 595 35,200 111 Level Aus ATC (RADAR)
Thu 21:50:53 -30.3987 156.4590 48° Northeast 517 595 35,300 71 Climbing Aus ATC (RADAR)
Thu 21:51:38 -30.3272 156.5526 48° Northeast 517 595 35,300 -57 Level Aus ATC (RADAR)
Thu 21:52:38 -30.2315 156.6776 48° Northeast 517 595 35,200  Descending Aus ATC (RADAR)
Thu 21:53:18 -30.1673 156.7611 48° Northeast 519 597 35,300 75 Climbing Aus ATC (RADAR)
Thu 21:53:58 -30.1039 156.8437 48° Northeast 517 595 35,300  Level Aus ATC (RADAR)
Thu 21:54:53 -30.0149 156.9587 48° Northeast 520 598 35,300  Level Aus ATC (RADAR)
Thu 21:55:18 -29.9752 157.0105 48° Northeast 518 596 35,300  Level Aus ATC (RADAR)
Thu 21:56:13 -29.8855 157.1263 48° Northeast 524 603 35,300  Level Aus ATC (RADAR)
Thu 21:56:28 -29.8610 157.1576 48° Northeast 522 601 35,300  Level Aus ATC (RADAR)
Thu 21:57:38 -29.7476 157.3035 48° Northeast 521 600 35,300  Level Aus ATC (RADAR)
Thu 21:58:08 -29.6986 157.3661 48° Northeast 525 604 35,300  Level Aus ATC (RADAR)
Thu 21:58:23 -29.6744 157.3975 49° Northeast 525 604 35,300  Level Aus ATC (RADAR)
Thu 21:58:58 -29.6169 157.4705 48° Northeast 525 604 35,300  Level Aus ATC (RADAR)
Thu 21:59:43 -29.5436 157.5639 48° Northeast 524 603 35,300  Level Aus ATC (RADAR)
Thu 22:00:03 -29.5109 157.6055 48° Northeast 524 603 35,300  Level Aus ATC (RADAR)
Thu 22:00:43 -29.4460 157.6884 48° Northeast 523 602 35,300 -50 Level Aus ATC (RADAR)
Thu 22:02:03 -29.3153 157.8542 48° Northeast 522 601 35,200  Descending Aus ATC (RADAR)
Thu 22:03:27 -29.1768 158.0297 48° Northeast 523 602 35,300 61 Climbing Aus ATC (RADAR)
Thu 22:03:42 -29.1517 158.0613 48° Northeast 524 603 35,300  Level Aus ATC (RADAR)
Thu 22:04:17 -29.0916 158.1341 47° Northeast 529 609 35,300  Level Aus ATC (RADAR)
Thu 22:04:52 -29.0324 158.2059 47° Northeast 531 611 35,300  Level Aus ATC (RADAR)
Thu 22:09:52 -28.4981 158.8715 47° Northeast 37,000 340 Climbing Aus ATC (Calculated)
Thu 22:11:00 -28.3914 159.0031 47° Northeast  Level FlightAware Approximate
Thu 22:12:00 -28.2972 159.1191 47° Northeast  Level FlightAware Approximate
Thu 22:12:37 -28.2278 159.2034 48° Northeast 35,000  Level Aus ATC (Calculated)
Thu 22:13:00 -28.2027 159.2347 47° Northeast  Level FlightAware Approximate
Thu 22:14:00 -28.0970 159.3630 47° Northeast  Level FlightAware Approximate
Thu 22:15:00 -28.0023 159.4782 47° Northeast  Level FlightAware Approximate
Thu 22:16:00 -27.9075 159.5932 47° Northeast  Level FlightAware Approximate
Thu 22:16:59 -27.7774 159.7504 227° Southwest 35,000  Level Aus ATC (Calculated)
Thu 22:17:00 -27.8126 159.7079 47° Northeast  Level FlightAware Approximate
Thu 22:17:31 -27.7343 159.8024 47° Northeast 35,000  Level Aus ATC (Calculated)
Thu 22:18:00 -27.6808 159.8668 47° Northeast  Level FlightAware Approximate
Thu 22:19:00 -27.5933 159.9720 47° Northeast  Level FlightAware Approximate
Thu 22:19:56 -27.4792 160.1087 227° Southwest 35,000  Level Aus ATC (Calculated)
Thu 22:20:00 -27.4981 160.0862 47° Northeast  Level FlightAware Approximate
Thu 22:20:21 -27.4406 160.1549 47° Northeast 35,000  Level Aus ATC (Calculated)
Thu 22:22:00 -27.2833 160.3425 47° Northeast  Level FlightAware Approximate
Thu 22:23:00 -27.1878 160.4560 47° Northeast  Level FlightAware Approximate
Thu 22:23:21 -27.1362 160.5171 47° Northeast 35,000  Level Aus ATC (Calculated)
Thu 22:23:45 -27.0695 160.5961 46° Northeast 35,000  Level Aus ATC (Calculated)
Thu 22:25:00 -26.9499 160.7374 46° Northeast  Level FlightAware Approximate
Thu 22:25:45 -26.8753 160.8251 46° Northeast 35,000  Level Aus ATC (Calculated)
Thu 22:26:00 -26.8540 160.8502 46° Northeast  Level FlightAware Approximate
Thu 22:27:00 -26.7555 160.9659 46° Northeast  Level FlightAware Approximate
Thu 22:27:00 -26.7579 160.9631 46° Northeast 35,000  Level Aus ATC (Calculated)
Thu 22:28:00 -26.6619 161.0755 46° Northeast  Level FlightAware Approximate
Thu 22:29:00 -26.5658 161.1877 46° Northeast  Level FlightAware Approximate
Thu 22:29:00 -26.5959 161.1526 46° Northeast 35,000  Level Aus ATC (Calculated)
Thu 22:30:00 -26.4997 161.2648 46° Northeast  Level FlightAware Approximate
Thu 22:31:00 -26.4035 161.3767 46° Northeast  Level FlightAware Approximate
Thu 22:32:00 -26.3072 161.4884 46° Northeast  Level FlightAware Approximate
Thu 22:33:00 -26.2108 161.5999 46° Northeast  Level FlightAware Approximate
Thu 22:34:00 -26.1143 161.7113 46° Northeast  Level FlightAware Approximate
Thu 22:35:00 -26.0177 161.8224 46° Northeast  Level FlightAware Approximate
Thu 22:36:00 -25.9211 161.9334 46° Northeast  Level FlightAware Approximate
Thu 22:37:00 -25.8244 162.0442 46° Northeast  Level FlightAware Approximate
Thu 22:38:00 -25.7275 162.1548 46° Northeast  Level FlightAware Approximate
Thu 22:39:00 -25.6306 162.2653 46° Northeast  Level FlightAware Approximate
Thu 22:39:00 -25.5380 162.3706 46° Northeast 35,000  Level Aus ATC (Calculated)
Thu 22:40:00 -25.4410 162.4807 46° Northeast  Level FlightAware Approximate
Thu 22:41:00 -25.3438 162.5906 46° Northeast  Level FlightAware Approximate
Thu 22:42:00 -25.2466 162.7003 46° Northeast  Level FlightAware Approximate
Thu 22:43:00 -25.1493 162.8099 46° Northeast  Level FlightAware Approximate
Thu 22:44:00 -25.0519 162.9193 46° Northeast  Level FlightAware Approximate
Thu 22:45:00 -24.9544 163.0285 45° Northeast  Level FlightAware Approximate
Thu 22:46:00 -25.0519 162.9193 225° Southwest  Level FlightAware Approximate
Thu 22:47:00 -24.9386 163.0080 45° Northeast  Level Estimated
Thu 22:48:00 -24.8421 163.1181 46° Northeast  Level FlightAware Approximate
Thu 22:49:00 -24.7455 163.2281 46° Northeast  Level FlightAware Approximate
Thu 22:50:00 -24.6489 163.3379 46° Northeast  Level FlightAware Approximate
Thu 22:51:00 -24.5521 163.4476 46° Northeast  Level FlightAware Approximate
Thu 22:52:00 -24.4553 163.5571 46° Northeast  Level FlightAware Approximate
Thu 22:53:00 -24.3584 163.6664 46° Northeast  Level FlightAware Approximate
Thu 22:54:00 -24.2614 163.7755 46° Northeast  Level FlightAware Approximate
Thu 22:55:00 -24.1643 163.8845 46° Northeast  Level FlightAware Approximate
Thu 22:56:00 -24.0672 163.9933 46° Northeast  Level FlightAware Approximate
Thu 22:57:00 -23.9700 164.1019 46° Northeast  Level FlightAware Approximate
Thu 22:58:00 -23.8727 164.2104 46° Northeast  Level FlightAware Approximate
Thu 22:59:00 -23.7753 164.3187 46° Northeast  Level FlightAware Approximate
Thu 23:00:00 -23.6779 164.4268 45° Northeast  Level FlightAware Approximate
Thu 23:01:00 -23.5804 164.5348 45° Northeast  Level FlightAware Approximate
Thu 23:02:00 -23.4828 164.6427 45° Northeast  Level FlightAware Approximate
Thu 23:03:00 -23.3642 164.7216 45° Northeast  Level Estimated
Thu 23:04:00 -23.2670 164.8296 46° Northeast  Level FlightAware Approximate
Thu 23:05:00 -23.1698 164.9375 46° Northeast  Level FlightAware Approximate
Thu 23:06:00 -23.0724 165.0453 46° Northeast  Level FlightAware Approximate
Thu 23:07:00 -22.9750 165.1529 45° Northeast  Level FlightAware Approximate
Thu 23:08:00 -22.8775 165.2604 45° Northeast  Level FlightAware Approximate
Thu 23:09:00 -22.7799 165.3677 45° Northeast  Level FlightAware Approximate
Thu 23:10:00 -22.6823 165.4748 45° Northeast  Level FlightAware Approximate
Thu 23:11:00 -22.5846 165.5818 45° Northeast  Level FlightAware Approximate
Thu 23:12:00 -22.4869 165.6886 45° Northeast  Level FlightAware Approximate
Thu 23:13:00 -22.3890 165.7953 45° Northeast  Level FlightAware Approximate
Thu 23:14:00 -22.2911 165.9019 45° Northeast  Level FlightAware Approximate
Thu 23:15:00 -22.1931 166.0083 45° Northeast  Level FlightAware Approximate
Thu 23:16:00 -22.0951 166.1145 45° Northeast  Level FlightAware Approximate
Thu 23:17:00 -21.9698 166.1793 24° Northeast  Level Estimated
Thu 23:18:00 -21.8438 166.2424 25° Northeast  Level FlightAware Approximate
Thu 23:19:00 -21.7178 166.3053 25° Northeast  Level FlightAware Approximate
Thu 23:20:00 -21.5917 166.3681 25° Northeast  Level FlightAware Approximate
Thu 23:21:00 -21.4656 166.4308 25° Northeast  Level FlightAware Approximate
Thu 23:22:00 -21.3395 166.4933 25° Northeast  Level FlightAware Approximate
Thu 23:23:00 -21.2134 166.5558 25° Northeast  Level FlightAware Approximate
Thu 23:24:00 -21.0873 166.6182 25° Northeast  Level FlightAware Approximate
Thu 23:25:00 -20.9611 166.6805 25° Northeast  Level FlightAware Approximate
Thu 23:26:00 -20.8349 166.7426 25° Northeast  Level FlightAware Approximate
Thu 23:27:00 -20.7087 166.8047 25° Northeast  Level FlightAware Approximate
Thu 23:28:00 -20.5824 166.8667 25° Northeast  Level FlightAware Approximate
Thu 23:29:00 -20.4562 166.9285 25° Northeast  Level FlightAware Approximate
Thu 23:30:00 -20.3299 166.9902 25° Northeast  Level FlightAware Approximate
Thu 23:31:00 -20.2036 167.0519 25° Northeast  Level FlightAware Approximate
Thu 23:32:00 -20.0773 167.1134 25° Northeast  Level FlightAware Approximate
Thu 23:33:00 -19.9509 167.1749 25° Northeast  Level FlightAware Approximate
Thu 23:34:00 -19.8245 167.2363 25° Northeast  Level FlightAware Approximate
Thu 23:35:00 -19.6982 167.2975 25° Northeast  Level FlightAware Approximate
Thu 23:36:00 -19.5717 167.3587 25° Northeast  Level FlightAware Approximate
Thu 23:37:00 -19.4470 167.4235 24° Northeast  Level Estimated
Thu 23:38:00 -19.3196 167.4821 23° Northeast  Level FlightAware Approximate
Thu 23:39:00 -19.1921 167.5407 23° Northeast  Level FlightAware Approximate
Thu 23:40:00 -19.0647 167.5992 23° Northeast  Level FlightAware Approximate
Thu 23:41:00 -18.9372 167.6576 23° Northeast  Level FlightAware Approximate
Thu 23:42:00 -18.8097 167.7159 23° Northeast  Level FlightAware Approximate
Thu 23:43:00 -18.6822 167.7741 23° Northeast  Level FlightAware Approximate
Thu 23:44:00 -18.5594 167.8427 24° Northeast  Level Estimated
Thu 23:45:00 -18.4316 167.9001 23° Northeast  Level FlightAware Approximate
Thu 23:46:00 -18.3038 167.9574 23° Northeast  Level FlightAware Approximate
Thu 23:47:00 -18.1760 168.0147 23° Northeast  Level FlightAware Approximate
Thu 23:48:00 -18.0481 168.0719 23° Northeast  Level FlightAware Approximate
Thu 23:49:00 -17.9203 168.1290 23° Northeast  Level FlightAware Approximate
Thu 23:50:00 -17.7924 168.1860 23° Northeast  Level FlightAware Approximate
Thu 23:51:00 -17.6746 168.2695 117° Southeast  Level FlightAware Approximate
Thu 23:52:00 -17.6991 168.3198 117° Southeast  Level FlightAware Approximate
Thu 23:53:00 -17.6993 168.3198 117° Southeast  Level Estimated
Thu 23:54:00 -17.6991 168.3198 117° Southeast  Level FlightAware Approximate
Thu 23:55:00 -17.6993 168.3198 117° Southeast  Level Estimated
Thu 23:56:00 -17.6991 168.3198 117° Southeast  Level FlightAware Approximate
Thu 23:57:00 -17.6993 168.3198 117° Southeast  Level Estimated
Thu 23:58:00 -17.6991 168.3198 117° Southeast  Level FlightAware Approximate
Thu 23:59:00 -17.6993 168.3198 117° Southeast  Level Estimated
Fri 00:00:00 -17.6991 168.3198 117° Southeast  Level FlightAware Approximate
Fri 00:01:00 -17.6993 168.3198 117° Southeast  Level Estimated
Fri 00:02:00 -17.6991 168.3198 117° Southeast  Level FlightAware Approximate
Fri 00:03:00 -17.6993 168.3198 117° Southeast  Level Estimated
Fri 00:04:00 -17.6991 168.3198 117° Southeast  Level FlightAware Approximate
Fri 00:05:00 -17.6993 168.3198 117° Southeast  Level Estimated
Fri 00:06:00 -17.6991 168.3198 117° Southeast  Level FlightAware Approximate
Fri 00:07:00 -17.6993 168.3198 117° Southeast  Level Estimated
Fri 00:08:00 -17.6991 168.3198 117° Southeast  Level FlightAware Approximate

Login

Don't have an account? Register now (free) for customized features, flight alerts, and more!